aviador You're here:

KSLB Decoded Metar

STORM LAKE in IA, USA
Report Time2017-05-29 03:55:00
UTC Time2017-05-29 03:51:47
Flight Rules vfr VFR
Wind360° at 05 kt
W.Decomp.*RWY 35: 5.0 kt HW 0.5 kt RCW
RWY 31: 3.5 kt HW 3.6 kt RCW
RWY 06: 2.2 kt HW 4.5 kt LCW
Visibility9999 m
Phenomena:N/A
Clouds:Broken 100 Hf
Expected CloudBase > 2,400 ft AGL from Temp-Dew spread
Ceiling10,000 ft
Temp14°C (ISA +2)
Dew Point08°C (67% RH)
AAT11.7°C
QNH1012 hPa
Density Alt1,906 ft
Elevation1,490 ft
Report Wrong Elevation
Raw Report
METAR KSLB 290355Z AUTO 36005KT 10SM BKN100 14/08 A2988 RMK AO2=

Extra information for KSLB:More info

Metar Taf Metar & Taf Last 4 Metars F.Rules Stats Wind Profile Meteogram Temp Stats Airport Information Weather charts Add Link Nearby VenuesMetar ALERT Operation Metar Decoded Social comments

AIRNAV info for KSLB